Time;durP1;ratioP1;P1;durP2;ratioP2;P2;SDS_P1;SDS_P2;PMS_P1;PMS_P2;Temp;Humidity;BMP_temperature;BMP_pressure;BME280_temperature;BME280_humidity;BME280_pressure;Samples;Min_cycle;Max_cycle;Signal;HPM_P1;HPM_P2
2023/04/06 00:01:48;;;;;;;;;;;;;;;4.83;84.54;99933.81;5069268;28;19916;-74
2023/04/06 00:04:13;;;;;;;;;;;;;;;4.91;84.09;99921.06;5049704;28;19916;-76
2023/04/06 00:06:39;;;;;;;;;;;;;;;4.91;83.29;99927.13;5068634;28;19923;-76
2023/04/06 00:09:04;;;;;;;;;;;;;;;4.90;83.25;99919.38;5063221;28;19970;-75
2023/04/06 00:11:29;;;;;;;;;;;;;;;4.73;83.71;99927.47;5066960;28;19916;-76
2023/04/06 00:13:55;;;;;;;;;;;;;;;4.76;83.66;99929.91;5067028;28;19917;-74
2023/04/06 00:16:20;;;;;;;;;;;;;;;4.74;83.78;99931.75;5068950;28;20276;-74
2023/04/06 00:18:45;;;;;;;;;;;;;;;4.79;83.49;99930.53;5065804;28;19956;-74
2023/04/06 00:21:12;;;;;;;;;;;;;;;4.89;83.00;99929.00;5068158;28;20309;-74
2023/04/06 00:23:38;;;;;;;;;;;;;;;4.84;81.95;99927.63;5066932;28;19952;-74
2023/04/06 00:26:03;;;;;;;;;;;;;;;4.75;83.31;99931.66;5069199;28;20413;-74
2023/04/06 00:28:29;;;;;;;;;;;;;;;4.50;84.83;99936.75;5066899;28;20371;-74
2023/04/06 00:30:55;;;;;;;;;;;;;;;4.42;85.65;99929.38;5067546;28;20048;-75
2023/04/06 00:33:21;;;;;;;;;;;;;;;4.40;85.72;99933.88;5048588;28;20013;-74
2023/04/06 00:35:47;;;;;;;;;;;;;;;4.37;86.04;99935.81;5051237;28;19924;-76
2023/04/06 00:38:12;;;;;;;;;;;;;;;4.27;86.79;99938.16;5065682;28;20288;-74
2023/04/06 00:40:39;;;;;;;;;;;;;;;4.21;86.79;99938.53;5063013;28;20373;-74
2023/04/06 00:43:10;;;;;;;;;;;;;;;4.15;87.05;99936.28;5063995;28;19917;-75
2023/04/06 00:45:37;;;;;;;;;;;;;;;4.13;87.54;99932.94;5049468;28;19924;-75
2023/04/06 00:48:03;;;;;;;;;;;;;;;4.04;87.83;99934.34;5047037;28;20013;-76
2023/04/06 00:50:29;;;;;;;;;;;;;;;4.06;87.41;99942.09;5067862;28;19974;-75
2023/04/06 00:52:55;;;;;;;;;;;;;;;4.08;88.12;99929.75;5065583;28;19924;-76
2023/04/06 00:55:25;;;;;;;;;;;;;;;4.15;87.88;99931.06;5047779;28;19916;-76
2023/04/06 00:57:51;;;;;;;;;;;;;;;4.35;86.29;99925.47;5045892;28;19973;-74
2023/04/06 01:00:16;;;;;;;;;;;;;;;4.47;86.16;99924.72;5048411;28;20353;-75
2023/04/06 01:02:45;;;;;;;;;;;;;;;4.50;86.04;99927.13;5044488;28;19927;-74
2023/04/06 01:05:11;;;;;;;;;;;;;;;4.40;86.93;99928.66;5050154;28;19978;-73
2023/04/06 01:07:46;;;;;;;;;;;;;;;4.40;87.03;99930.41;5052765;28;19977;-74
2023/04/06 01:10:23;;;;;;;;;;;;;;;4.43;87.10;99918.00;5030880;28;20365;-73
2023/04/06 01:12:49;;;;;;;;;;;;;;;4.18;88.03;99933.50;5048968;28;19916;-74
2023/04/06 01:15:23;;;;;;;;;;;;;;;4.23;87.58;99928.84;5046717;28;19924;-75
2023/04/06 01:17:50;;;;;;;;;;;;;;;4.20;87.83;99936.84;5049715;28;19957;-74
2023/04/06 01:20:16;;;;;;;;;;;;;;;3.93;89.08;99935.91;5048555;28;20362;-75
2023/04/06 01:22:42;;;;;;;;;;;;;;;4.07;88.95;99934.13;5051871;28;19917;-75
2023/04/06 01:25:08;;;;;;;;;;;;;;;4.14;88.41;99934.63;5051926;28;19916;-75
2023/04/06 01:27:42;;;;;;;;;;;;;;;4.14;87.99;99926.78;5052064;28;20376;-75
2023/04/06 01:30:10;;;;;;;;;;;;;;;4.04;88.53;99933.50;5065959;28;19920;-74
2023/04/06 01:32:49;;;;;;;;;;;;;;;4.15;87.90;99931.06;5049404;28;19923;-74
2023/04/06 01:35:20;;;;;;;;;;;;;;;4.15;88.11;99931.06;5045066;28;19952;-74
2023/04/06 01:37:56;;;;;;;;;;;;;;;4.11;88.50;99934.81;5046068;28;20388;-73
2023/04/06 01:40:28;;;;;;;;;;;;;;;3.94;89.29;99927.16;5051141;28;20433;-74
2023/04/06 01:42:54;;;;;;;;;;;;;;;4.07;88.66;99934.13;5063998;28;19916;-74
2023/04/06 01:45:28;;;;;;;;;;;;;;;4.19;88.17;99935.16;5049107;28;19925;-76
2023/04/06 01:47:58;;;;;;;;;;;;;;;4.27;87.65;99932.94;5045754;28;19916;-74
2023/04/06 01:50:25;;;;;;;;;;;;;;;4.26;87.52;99928.66;5048135;28;19999;-75
2023/04/06 01:52:51;;;;;;;;;;;;;;;4.20;87.55;99934.25;5046645;28;20039;-74
2023/04/06 01:55:16;;;;;;;;;;;;;;;4.30;87.17;99935.34;5043529;28;20299;-74
2023/04/06 01:58:02;;;;;;;;;;;;;;;4.17;88.21;99934.44;5046807;28;20003;-74
2023/04/06 02:00:33;;;;;;;;;;;;;;;4.27;86.84;99930.34;5046690;28;20336;-75
2023/04/06 02:02:59;;;;;;;;;;;;;;;4.25;87.04;99937.41;5063884;28;20394;-75
2023/04/06 02:05:27;;;;;;;;;;;;;;;4.30;86.75;99939.75;5043217;28;20363;-75
2023/04/06 02:07:54;;;;;;;;;;;;;;;4.18;86.71;99938.75;5051661;28;20372;-74
2023/04/06 02:10:28;;;;;;;;;;;;;;;4.06;87.99;99942.09;5046778;28;20339;-75
2023/04/06 02:12:56;;;;;;;;;;;;;;;4.24;86.79;99945.38;5049332;28;20366;-75
2023/04/06 02:15:25;;;;;;;;;;;;;;;4.25;87.44;99947.84;5045403;28;20291;-76
2023/04/06 02:17:51;;;;;;;;;;;;;;;4.32;86.79;99954.41;5048230;28;19916;-75
2023/04/06 02:20:16;;;;;;;;;;;;;;;4.35;86.68;99954.22;5044919;28;20449;-74
2023/04/06 02:22:42;;;;;;;;;;;;;;;4.28;87.08;99952.91;5065463;28;20012;-76
2023/04/06 02:25:07;;;;;;;;;;;;;;;3.95;88.74;99957.53;5063460;28;19916;-75
2023/04/06 02:27:33;;;;;;;;;;;;;;;4.02;88.56;99961.47;5048455;28;19948;-76
2023/04/06 02:29:58;;;;;;;;;;;;;;;3.98;89.07;99962.59;5062965;28;20348;-76
2023/04/06 02:32:24;;;;;;;;;;;;;;;3.66;91.10;99960.09;5066310;28;19922;-75
2023/04/06 02:34:49;;;;;;;;;;;;;;;3.76;89.71;99959.56;5062656;28;20376;-76
2023/04/06 02:37:17;;;;;;;;;;;;;;;3.78;90.10;99957.69;5048530;28;20343;-75
2023/04/06 02:39:42;;;;;;;;;;;;;;;3.78;90.12;99947.25;5045015;28;20019;-75
2023/04/06 02:42:08;;;;;;;;;;;;;;;3.75;90.47;99944.84;5049786;28;19916;-75
2023/04/06 02:44:34;;;;;;;;;;;;;;;3.83;89.92;99953.88;5043048;28;19916;-75
2023/04/06 02:46:59;;;;;;;;;;;;;;;3.84;89.59;99941.66;5048268;28;20040;-76
2023/04/06 02:49:25;;;;;;;;;;;;;;;3.75;90.88;99939.63;5044217;28;19952;-75
2023/04/06 02:51:55;;;;;;;;;;;;;;;3.78;90.38;99931.59;5065222;28;20408;-75
2023/04/06 02:54:25;;;;;;;;;;;;;;;3.79;90.33;99954.16;5045748;28;20393;-76
2023/04/06 02:56:50;;;;;;;;;;;;;;;3.77;90.37;99945.59;5066147;28;19951;-74
2023/04/06 02:59:16;;;;;;;;;;;;;;;3.79;90.75;99946.31;5045432;28;19920;-75
2023/04/06 03:01:48;;;;;;;;;;;;;;;3.84;90.32;99952.09;5047025;28;19916;-76
2023/04/06 03:04:14;;;;;;;;;;;;;;;3.63;92.04;99947.25;5046033;28;19922;-76
2023/04/06 03:06:40;;;;;;;;;;;;;;;3.66;91.69;99944.44;5043877;28;20001;-76
2023/04/06 03:09:15;;;;;;;;;;;;;;;3.69;91.77;99938.22;5046895;28;19923;-76
2023/04/06 03:11:42;;;;;;;;;;;;;;;3.67;92.17;99953.94;5045478;28;19917;-75
2023/04/06 03:14:08;;;;;;;;;;;;;;;3.66;92.17;99943.59;5030890;28;19920;-75
2023/04/06 03:16:33;;;;;;;;;;;;;;;3.56;93.22;99950.28;5063327;28;19916;-75
2023/04/06 03:19:00;;;;;;;;;;;;;;;3.63;92.25;99955.06;5046512;28;19916;-74
2023/04/06 03:21:26;;;;;;;;;;;;;;;3.61;93.15;99954.31;5066143;28;20049;-74
2023/04/06 03:23:52;;;;;;;;;;;;;;;3.60;93.36;99955.22;5064207;28;19920;-76
2023/04/06 03:26:18;;;;;;;;;;;;;;;3.54;93.73;99952.97;5048181;28;19947;-74
2023/04/06 03:28:44;;;;;;;;;;;;;;;3.31;95.51;99958.66;5062473;28;19917;-75
2023/04/06 03:31:09;;;;;;;;;;;;;;;3.20;96.86;99953.22;5044940;28;19940;-75
2023/04/06 03:33:50;;;;;;;;;;;;;;;3.38;95.60;99960.00;5063200;28;21445;-74
2023/04/06 03:36:30;;;;;;;;;;;;;;;3.26;96.36;99965.91;5061374;28;19912;-75
2023/04/06 03:38:56;;;;;;;;;;;;;;;3.25;96.27;99959.03;5061978;28;19920;-75
2023/04/06 03:41:22;;;;;;;;;;;;;;;3.25;96.38;99964.22;5044070;28;19916;-76
2023/04/06 03:43:55;;;;;;;;;;;;;;;3.04;97.59;99971.50;5065123;28;19954;-74
2023/04/06 03:46:21;;;;;;;;;;;;;;;3.00;98.61;99969.16;5063424;28;20015;-74
2023/04/06 03:48:50;;;;;;;;;;;;;;;2.89;100.00;99972.34;5049756;28;20072;-75
2023/04/06 03:51:17;;;;;;;;;;;;;;;2.91;100.00;99974.88;5044274;28;20357;-74
2023/04/06 03:53:42;;;;;;;;;;;;;;;2.99;100.00;99972.69;5044439;28;19951;-75
2023/04/06 03:56:08;;;;;;;;;;;;;;;3.05;100.00;99982.78;5041252;28;19924;-74
2023/04/06 03:58:33;;;;;;;;;;;;;;;3.12;99.74;99977.13;5060801;28;20011;-75
2023/04/06 04:00:59;;;;;;;;;;;;;;;3.16;99.53;99980.41;5060548;28;20065;-75
2023/04/06 04:03:26;;;;;;;;;;;;;;;2.99;100.00;99983.13;5060057;28;19960;-76
2023/04/06 04:05:52;;;;;;;;;;;;;;;3.08;99.98;99982.59;5061488;28;20814;-76
2023/04/06 04:08:18;;;;;;;;;;;;;;;3.00;100.00;99984.81;5060323;28;20016;-76
2023/04/06 04:10:43;;;;;;;;;;;;;;;3.03;100.00;99995.06;5063001;28;20066;-76
2023/04/06 04:13:09;;;;;;;;;;;;;;;2.77;100.00;99994.69;5042167;28;19924;-75
2023/04/06 04:15:34;;;;;;;;;;;;;;;2.91;100.00;99990.50;5043559;28;19940;-75
2023/04/06 04:18:00;;;;;;;;;;;;;;;2.99;100.00;100003.97;5043005;28;19927;-75
2023/04/06 04:20:26;;;;;;;;;;;;;;;2.89;100.00;100004.47;5026999;28;20364;-75
2023/04/06 04:22:51;;;;;;;;;;;;;;;2.75;100.00;99995.72;5061124;28;19920;-75
2023/04/06 04:25:16;;;;;;;;;;;;;;;2.47;100.00;100004.19;5040904;28;20024;-76
2023/04/06 04:27:46;;;;;;;;;;;;;;;2.46;100.00;100005.94;5047140;28;20288;-75
2023/04/06 04:30:11;;;;;;;;;;;;;;;2.50;100.00;100001.41;5062774;28;19923;-76
2023/04/06 04:32:37;;;;;;;;;;;;;;;2.53;100.00;99996.03;5064605;28;19926;-75
2023/04/06 04:35:04;;;;;;;;;;;;;;;2.66;100.00;100007.47;5045160;28;19916;-75
2023/04/06 04:37:35;;;;;;;;;;;;;;;2.40;100.00;100006.25;5045776;28;20343;-75
2023/04/06 04:40:02;;;;;;;;;;;;;;;2.30;100.00;99999.00;5045110;28;19916;-74
2023/04/06 04:42:31;;;;;;;;;;;;;;;2.22;100.00;100001.16;5045407;28;19982;-75
2023/04/06 04:44:58;;;;;;;;;;;;;;;2.23;100.00;99982.88;5045831;28;20360;-74
2023/04/06 04:47:36;;;;;;;;;;;;;;;2.14;100.00;99993.75;5045862;28;19932;-76
2023/04/06 04:50:03;;;;;;;;;;;;;;;2.17;100.00;100000.56;5062483;28;20348;-74
2023/04/06 04:52:29;;;;;;;;;;;;;;;2.12;100.00;100000.78;5045788;28;19962;-73
2023/04/06 04:55:13;;;;;;;;;;;;;;;2.22;100.00;99995.97;5061320;28;19923;-75
2023/04/06 04:57:40;;;;;;;;;;;;;;;2.23;100.00;100002.84;5046243;28;19917;-76
2023/04/06 05:00:07;;;;;;;;;;;;;;;2.25;100.00;100006.19;5043752;28;20399;-75
2023/04/06 05:02:34;;;;;;;;;;;;;;;2.12;100.00;99997.38;5046434;28;19928;-75
2023/04/06 05:05:11;;;;;;;;;;;;;;;2.15;100.00;99994.59;5046988;28;19917;-74
2023/04/06 05:07:38;;;;;;;;;;;;;;;2.20;100.00;100008.19;5049320;28;20041;-74
2023/04/06 05:10:06;;;;;;;;;;;;;;;2.31;100.00;100008.47;5046326;28;19943;-75
2023/04/06 05:12:38;;;;;;;;;;;;;;;2.39;100.00;100015.00;5067580;28;20307;-75
2023/04/06 05:15:06;;;;;;;;;;;;;;;2.35;100.00;100018.69;5046256;28;20007;-74
2023/04/06 05:17:32;;;;;;;;;;;;;;;2.20;100.00;100013.41;5051635;28;20023;-74
2023/04/06 05:19:58;;;;;;;;;;;;;;;2.06;100.00;100017.56;5049722;28;19917;-75
2023/04/06 05:22:26;;;;;;;;;;;;;;;2.17;100.00;100019.63;5051332;28;19916;-76
2023/04/06 05:25:10;;;;;;;;;;;;;;;2.31;100.00;100022.34;5044673;28;20340;-76
2023/04/06 05:27:37;;;;;;;;;;;;;;;2.34;100.00;100029.19;5065036;28;19932;-76
2023/04/06 05:30:07;;;;;;;;;;;;;;;2.25;100.00;100027.88;5033023;28;19931;-75
2023/04/06 05:32:38;;;;;;;;;;;;;;;2.25;100.00;100027.88;5045768;28;19920;-76
2023/04/06 05:35:04;;;;;;;;;;;;;;;2.29;100.00;100033.78;5066858;28;19921;-76
2023/04/06 05:37:30;;;;;;;;;;;;;;;2.30;100.00;100032.84;5045841;28;20633;-77
2023/04/06 05:39:56;;;;;;;;;;;;;;;2.11;100.00;100029.53;5047347;28;19959;-76
2023/04/06 05:42:22;;;;;;;;;;;;;;;2.12;100.00;100033.81;5049627;28;19954;-76
2023/04/06 05:44:55;;;;;;;;;;;;;;;2.26;100.00;100037.38;5048968;28;19974;-76
2023/04/06 05:47:20;;;;;;;;;;;;;;;2.36;100.00;100037.72;5029080;28;20369;-77
2023/04/06 05:49:51;;;;;;;;;;;;;;;2.52;100.00;100036.03;5045182;28;19917;-76
2023/04/06 05:52:25;;;;;;;;;;;;;;;2.46;100.00;100039.81;5049792;28;19916;-77
2023/04/06 05:54:50;;;;;;;;;;;;;;;2.55;100.00;100041.06;5046803;28;20835;-77
2023/04/06 05:57:19;;;;;;;;;;;;;;;2.68;100.00;100044.72;5067404;28;19920;-77
2023/04/06 05:59:44;;;;;;;;;;;;;;;2.73;100.00;100044.47;5066153;28;20387;-77
2023/04/06 06:02:12;;;;;;;;;;;;;;;2.76;100.00;100045.16;5047497;28;19969;-77
2023/04/06 06:04:41;;;;;;;;;;;;;;;2.75;100.00;100047.84;5048173;28;19924;-77
2023/04/06 06:07:07;;;;;;;;;;;;;;;2.88;99.83;100044.50;5066809;28;20007;-78
2023/04/06 06:09:39;;;;;;;;;;;;;;;3.00;99.05;100042.16;5044731;28;20249;-78
2023/04/06 06:12:16;;;;;;;;;;;;;;;3.08;98.29;100039.97;5048424;28;20296;-77
2023/04/06 06:14:41;;;;;;;;;;;;;;;3.13;98.20;100054.44;5052361;28;19917;-77
2023/04/06 06:17:07;;;;;;;;;;;;;;;3.15;97.68;100056.97;5047578;28;20419;-77
2023/04/06 06:19:33;;;;;;;;;;;;;;;3.14;97.36;100063.09;5044754;28;19916;-76
2023/04/06 06:22:02;;;;;;;;;;;;;;;3.15;97.44;100067.38;5047045;28;20014;-75
2023/04/06 06:24:28;;;;;;;;;;;;;;;2.94;97.81;100058.13;5052175;28;19916;-76
2023/04/06 06:26:54;;;;;;;;;;;;;;;2.89;98.44;100061.81;5050833;28;20289;-77
2023/04/06 06:29:24;;;;;;;;;;;;;;;2.79;99.43;100063.22;5064768;28;20304;-79
2023/04/06 06:31:49;;;;;;;;;;;;;;;2.96;99.04;100058.88;5047076;28;19932;-78
2023/04/06 06:34:15;;;;;;;;;;;;;;;3.25;97.23;100055.53;5049554;28;20383;-77
2023/04/06 06:36:41;;;;;;;;;;;;;;;3.35;96.17;100054.09;5045944;28;19916;-77
2023/04/06 06:39:09;;;;;;;;;;;;;;;3.46;95.74;100056.97;5046892;28;19917;-77
2023/04/06 06:41:35;;;;;;;;;;;;;;;3.62;95.15;100057.78;5046501;28;19935;-77
2023/04/06 06:44:01;;;;;;;;;;;;;;;3.74;94.58;100050.16;5044559;28;20003;-76
2023/04/06 06:46:27;;;;;;;;;;;;;;;3.73;94.28;100057.16;5042860;28;19988;-77
2023/04/06 06:48:52;;;;;;;;;;;;;;;3.69;94.70;100053.88;5043646;28;19916;-77
2023/04/06 06:51:18;;;;;;;;;;;;;;;3.88;94.22;100065.88;5030406;28;20034;-77
2023/04/06 06:53:44;;;;;;;;;;;;;;;4.02;92.98;100065.91;5030282;28;20297;-77
2023/04/06 06:56:10;;;;;;;;;;;;;;;4.05;92.82;100070.97;5026477;28;19913;-76
2023/04/06 06:58:35;;;;;;;;;;;;;;;4.13;92.59;100068.75;5028747;28;20328;-76
2023/04/06 07:01:01;;;;;;;;;;;;;;;4.21;92.55;100058.69;5029263;28;19932;-78
2023/04/06 07:03:28;;;;;;;;;;;;;;;4.33;91.18;100051.91;5011541;28;19920;-77
2023/04/06 07:05:55;;;;;;;;;;;;;;;4.57;90.19;100060.03;5024791;28;19917;-76
2023/04/06 07:08:22;;;;;;;;;;;;;;;4.70;89.20;100061.84;5029115;28;19913;-77
2023/04/06 07:10:52;;;;;;;;;;;;;;;4.91;87.95;100064.91;5011891;28;20344;-78
2023/04/06 07:13:21;;;;;;;;;;;;;;;5.05;87.34;100066.66;5025152;28;19917;-77
2023/04/06 07:15:48;;;;;;;;;;;;;;;5.21;86.35;100060.38;5029705;28;19928;-78
2023/04/06 07:18:14;;;;;;;;;;;;;;;5.42;85.49;100057.34;5029898;28;19923;-76
2023/04/06 07:20:40;;;;;;;;;;;;;;;5.52;84.26;100061.03;5022416;28;19917;-76
2023/04/06 07:23:06;;;;;;;;;;;;;;;5.55;83.16;100058.22;5025029;28;19921;-75
2023/04/06 07:25:31;;;;;;;;;;;;;;;5.80;82.67;100058.31;5025961;28;19967;-77
2023/04/06 07:27:56;;;;;;;;;;;;;;;5.95;80.38;100059.94;5029001;28;19927;-77
2023/04/06 07:30:26;;;;;;;;;;;;;;;5.94;80.17;100060.91;5029155;28;20019;-75
2023/04/06 07:32:51;;;;;;;;;;;;;;;6.11;78.88;100058.00;5025713;28;19917;-76
2023/04/06 07:35:17;;;;;;;;;;;;;;;6.24;76.79;100059.81;5030222;28;20013;-75
2023/04/06 07:37:42;;;;;;;;;;;;;;;6.37;74.78;100058.84;5026459;28;19960;-76
2023/04/06 07:40:08;;;;;;;;;;;;;;;6.56;74.86;100063.69;5030100;28;20038;-76
2023/04/06 07:42:34;;;;;;;;;;;;;;;6.72;72.57;100064.31;5029893;28;19952;-75
2023/04/06 07:45:00;;;;;;;;;;;;;;;6.87;71.68;100068.50;5020000;28;20016;-77
2023/04/06 07:47:26;;;;;;;;;;;;;;;7.02;70.30;100065.75;5030349;28;20007;-77
2023/04/06 07:49:51;;;;;;;;;;;;;;;7.17;70.23;100064.69;5037493;28;20029;-76
2023/04/06 07:52:17;;;;;;;;;;;;;;;7.25;67.41;100054.44;5031992;28;19923;-75
2023/04/06 07:54:44;;;;;;;;;;;;;;;7.40;66.95;100059.47;5047825;28;19923;-75
2023/04/06 07:57:09;;;;;;;;;;;;;;;7.54;66.29;100058.44;5041177;28;20023;-76
2023/04/06 07:59:35;;;;;;;;;;;;;;;7.61;63.58;100057.06;5063139;28;20018;-77
2023/04/06 08:02:00;;;;;;;;;;;;;;;7.71;62.56;100050.19;5061248;28;20040;-77
2023/04/06 08:04:25;;;;;;;;;;;;;;;7.67;57.03;100064.50;5067949;28;19956;-74
2023/04/06 08:06:51;;;;;;;;;;;;;;;7.61;56.68;100064.94;5047942;28;19920;-75
2023/04/06 08:09:16;;;;;;;;;;;;;;;7.73;57.41;100056.16;5054117;28;20226;-76
2023/04/06 08:11:41;;;;;;;;;;;;;;;7.65;56.84;100061.16;5067320;28;19924;-74
2023/04/06 08:14:07;;;;;;;;;;;;;;;7.81;57.09;100056.44;5069737;28;19924;-77
2023/04/06 08:16:32;;;;;;;;;;;;;;;7.74;54.70;100065.72;5065331;28;20042;-74
2023/04/06 08:18:58;;;;;;;;;;;;;;;7.76;54.71;100063.84;5068950;28;19923;-74
2023/04/06 08:21:23;;;;;;;;;;;;;;;7.68;53.39;100067.97;5069397;28;19927;-73
2023/04/06 08:23:49;;;;;;;;;;;;;;;7.88;53.92;100056.84;5066126;28;19924;-74
2023/04/06 08:26:14;;;;;;;;;;;;;;;8.03;54.30;100053.06;5068804;28;19969;-76
2023/04/06 08:28:40;;;;;;;;;;;;;;;8.04;52.98;100056.53;5064524;28;19917;-76
2023/04/06 08:31:05;;;;;;;;;;;;;;;7.58;53.70;100059.91;5068228;28;20271;-73
2023/04/06 08:33:31;;;;;;;;;;;;;;;7.52;54.71;100057.75;5066423;28;19917;-75
2023/04/06 08:35:57;;;;;;;;;;;;;;;7.65;54.59;100058.53;5068436;28;19927;-73
2023/04/06 08:38:22;;;;;;;;;;;;;;;7.80;53.66;100060.03;5067067;28;20298;-76
2023/04/06 08:40:49;;;;;;;;;;;;;;;7.87;53.02;100054.31;5066546;28;20732;-72
2023/04/06 08:43:17;;;;;;;;;;;;;;;7.88;51.70;100050.75;5043478;28;19971;-74
2023/04/06 08:45:43;;;;;;;;;;;;;;;7.87;50.12;100049.06;5069441;28;19917;-73
2023/04/06 08:48:09;;;;;;;;;;;;;;;8.07;51.03;100053.69;5069141;28;20286;-76
2023/04/06 08:50:35;;;;;;;;;;;;;;;8.17;49.30;100057.28;5066261;28;19937;-75
2023/04/06 08:53:01;;;;;;;;;;;;;;;8.16;49.40;100050.34;5065350;28;19917;-76
2023/04/06 08:55:26;;;;;;;;;;;;;;;8.38;48.24;100047.78;5066571;28;19974;-75
2023/04/06 08:57:54;;;;;;;;;;;;;;;8.56;47.15;100043.75;5065237;28;19948;-75
2023/04/06 09:00:20;;;;;;;;;;;;;;;8.74;47.22;100040.66;5068338;28;19917;-75
2023/04/06 09:02:45;;;;;;;;;;;;;;;8.87;46.33;100036.97;5048891;28;19982;-77
2023/04/06 09:05:11;;;;;;;;;;;;;;;8.98;46.27;100033.47;5068295;28;19921;-77
2023/04/06 09:07:37;;;;;;;;;;;;;;;9.15;45.33;100035.63;5047377;28;19974;-76
2023/04/06 09:10:04;;;;;;;;;;;;;;;9.13;44.57;100034.88;5068144;28;19951;-76
2023/04/06 09:12:31;;;;;;;;;;;;;;;9.14;43.82;100028.66;5065268;28;20360;-75
2023/04/06 09:14:57;;;;;;;;;;;;;;;9.19;43.85;100026.50;5061926;28;19924;-75
2023/04/06 09:17:24;;;;;;;;;;;;;;;9.33;43.88;100026.25;5063816;28;19916;-75
2023/04/06 09:19:50;;;;;;;;;;;;;;;9.41;43.63;100021.22;5043702;28;19986;-73
2023/04/06 09:22:15;;;;;;;;;;;;;;;9.55;43.24;100016.59;5070855;28;19916;-73
2023/04/06 09:24:41;;;;;;;;;;;;;;;9.57;44.21;100025.22;5070827;28;19920;-74
2023/04/06 09:27:06;;;;;;;;;;;;;;;9.59;44.52;100018.03;5068711;28;20007;-73
2023/04/06 09:29:32;;;;;;;;;;;;;;;9.48;44.53;100020.72;5069715;28;19927;-75
2023/04/06 09:32:04;;;;;;;;;;;;;;;9.61;43.81;100016.09;5066308;28;19917;-74
2023/04/06 09:34:29;;;;;;;;;;;;;;;9.72;43.62;100014.25;5066031;28;19932;-75
2023/04/06 09:36:55;;;;;;;;;;;;;;;9.77;42.49;100017.38;5068471;28;20288;-76
2023/04/06 09:39:24;;;;;;;;;;;;;;;9.91;42.59;100018.00;5045201;28;19924;-78
2023/04/06 09:41:50;;;;;;;;;;;;;;;9.98;41.34;100008.63;5065952;28;19916;-76
2023/04/06 09:44:16;;;;;;;;;;;;;;;10.08;40.94;100015.63;5064538;28;20292;-76
2023/04/06 09:46:42;;;;;;;;;;;;;;;10.10;40.39;100018.16;5062991;28;19926;-75
2023/04/06 09:49:08;;;;;;;;;;;;;;;10.15;40.67;100013.31;5047096;28;19978;-75
2023/04/06 09:51:37;;;;;;;;;;;;;;;10.21;40.83;100011.03;5065084;28;19942;-75
2023/04/06 09:54:04;;;;;;;;;;;;;;;10.32;40.20;100014.56;5067241;28;19927;-75
2023/04/06 09:56:45;;;;;;;;;;;;;;;10.32;39.43;100001.38;5065964;28;20021;-77
2023/04/06 09:59:13;;;;;;;;;;;;;;;10.42;39.41;100003.13;5066124;28;20368;-74
2023/04/06 10:01:39;;;;;;;;;;;;;;;10.52;40.30;99997.88;5066535;28;19931;-79
2023/04/06 10:04:07;;;;;;;;;;;;;;;10.57;40.08;100004.44;5066815;28;19917;-75
2023/04/06 10:06:35;;;;;;;;;;;;;;;10.59;38.33;99999.88;5064918;28;19916;-75
2023/04/06 10:09:02;;;;;;;;;;;;;;;10.70;37.30;100001.59;5063733;28;20343;-77
2023/04/06 10:11:28;;;;;;;;;;;;;;;10.79;37.74;99990.22;5062758;28;19958;-76
2023/04/06 10:13:54;;;;;;;;;;;;;;;10.86;36.67;99990.53;5066065;28;19931;-76
2023/04/06 10:16:21;;;;;;;;;;;;;;;10.90;36.30;99991.91;5049418;28;19912;-75
2023/04/06 10:18:49;;;;;;;;;;;;;;;10.95;36.55;99995.84;5063215;28;19924;-79
2023/04/06 10:21:19;;;;;;;;;;;;;;;11.04;35.71;99995.03;5067193;28;19927;-73
2023/04/06 10:23:51;;;;;;;;;;;;;;;11.12;34.36;99985.59;5068722;28;20285;-74
2023/04/06 10:26:20;;;;;;;;;;;;;;;11.24;33.23;99989.81;5066586;28;19924;-74
2023/04/06 10:28:46;;;;;;;;;;;;;;;11.31;32.72;99983.00;5065593;28;20328;-75
2023/04/06 10:31:12;;;;;;;;;;;;;;;11.36;32.83;99986.06;5046959;28;20387;-75
2023/04/06 10:33:38;;;;;;;;;;;;;;;11.46;32.83;99978.97;5061483;28;19924;-73
2023/04/06 10:36:14;;;;;;;;;;;;;;;11.54;32.61;99987.06;5066364;28;19962;-78
2023/04/06 10:38:40;;;;;;;;;;;;;;;11.63;31.97;99991.50;5062683;28;20011;-73
2023/04/06 10:41:06;;;;;;;;;;;;;;;11.72;31.30;99985.38;5065468;28;20016;-75
2023/04/06 10:43:38;;;;;;;;;;;;;;;11.86;32.01;99978.84;5044136;28;19916;-75
2023/04/06 10:46:05;;;;;;;;;;;;;;;11.94;30.91;99983.44;5066103;28;19955;-75
2023/04/06 10:48:46;;;;;;;;;;;;;;;12.07;30.82;99984.00;4712952;28;9999885;-73
2023/04/06 10:51:13;;;;;;;;;;;;;;;12.10;30.57;99973.13;5064052;28;19924;-72
2023/04/06 10:53:40;;;;;;;;;;;;;;;12.13;30.21;99962.28;5061208;28;19924;-73
2023/04/06 10:56:10;;;;;;;;;;;;;;;12.08;30.04;99964.47;5062219;28;19924;-73
2023/04/06 10:58:36;;;;;;;;;;;;;;;12.12;30.07;99965.88;5062107;28;19920;-73
2023/04/06 11:01:02;;;;;;;;;;;;;;;12.28;30.58;99966.13;5063475;28;19961;-73
2023/04/06 11:03:28;;;;;;;;;;;;;;;12.48;30.70;99956.31;5059352;28;19920;-73
2023/04/06 11:05:55;;;;;;;;;;;;;;;12.68;30.49;99953.41;5061853;28;19920;-72
2023/04/06 11:08:33;;;;;;;;;;;;;;;12.81;30.07;99946.97;5056777;28;20290;-72
2023/04/06 11:11:18;;;;;;;;;;;;;;;12.84;29.65;99944.03;5058561;28;19977;-73
2023/04/06 11:13:57;;;;;;;;;;;;;;;12.89;29.76;99933.81;5059784;28;20387;-73
2023/04/06 11:16:23;;;;;;;;;;;;;;;12.95;29.84;99927.94;5057836;28;19997;-72
2023/04/06 11:18:51;;;;;;;;;;;;;;;12.95;29.76;99923.47;5060142;28;19920;-73
2023/04/06 11:21:18;;;;;;;14.15;9.77;;;;;;;13.02;30.01;99923.69;5055643;28;19982;-73
2023/04/06 11:23:44;;;;;;;13.30;9.52;;;;;;;13.08;29.49;99908.03;4346819;28;10000804;-75
2023/04/06 11:26:14;;;;;;;13.80;10.63;;;;;;;13.24;29.76;99922.47;5064485;28;20040;-74
2023/04/06 11:28:43;;;;;;;13.45;9.30;;;;;;;13.37;28.55;99918.44;5048094;28;20389;-75
2023/04/06 11:31:10;;;;;;;11.70;9.98;;;;;;;13.31;28.89;99913.75;5061984;28;20485;-75
2023/04/06 11:33:38;;;;;;;11.38;9.63;;;;;;;13.26;29.06;99905.41;5065938;28;20036;-74
2023/04/06 11:36:04;;;;;;;11.77;9.82;;;;;;;13.32;29.14;99909.28;5062364;28;20060;-74
2023/04/06 11:38:30;;;;;;;13.95;10.05;;;;;;;13.23;29.71;99916.31;5069235;28;20031;-73
2023/04/06 11:40:56;;;;;;;13.93;10.23;;;;;;;13.17;29.98;99911.63;5065925;28;20033;-74
2023/04/06 11:43:31;;;;;;;13.57;10.60;;;;;;;13.23;30.52;99905.72;5065113;28;20086;-74
2023/04/06 11:46:04;;;;;;;15.43;10.55;;;;;;;13.19;30.41;99900.88;5065895;28;20449;-75
2023/04/06 11:48:30;;;;;;;15.45;10.30;;;;;;;13.29;30.64;99894.53;5067408;28;20032;-73
2023/04/06 11:51:04;;;;;;;14.45;10.50;;;;;;;13.41;30.90;99897.78;5033096;28;20517;-74
2023/04/06 11:53:30;;;;;;;19.02;11.13;;;;;;;13.55;31.12;99891.91;5028690;28;20033;-75
2023/04/06 11:55:56;;;;;;;12.07;9.90;;;;;;;13.58;30.56;99886.31;5028734;28;20056;-74
2023/04/06 11:58:22;;;;;;;18.08;10.82;;;;;;;13.47;30.23;99879.44;5026264;28;20052;-76
2023/04/06 12:00:48;;;;;;;14.80;11.18;;;;;;;13.36;30.03;99869.09;5025625;28;20037;-74
2023/04/06 12:03:14;;;;;;;15.95;11.10;;;;;;;13.36;30.84;99868.25;5028216;28;20037;-75
2023/04/06 12:05:39;;;;;;;13.25;10.57;;;;;;;13.37;31.06;99865.41;5027439;28;20386;-75
2023/04/06 12:08:05;;;;;;;12.25;10.13;;;;;;;13.45;31.46;99862.84;5026663;28;20037;-75
2023/04/06 12:10:31;;;;;;;16.08;11.27;;;;;;;13.51;31.73;99864.88;5025270;28;20716;-76
2023/04/06 12:12:56;;;;;;;15.90;11.18;;;;;;;13.60;31.63;99859.66;5028240;28;20512;-74
2023/04/06 12:15:22;;;;;;;14.50;11.05;;;;;;;13.67;32.49;99852.72;5026136;28;20037;-75
2023/04/06 12:17:49;;;;;;;17.63;12.02;;;;;;;13.63;32.00;99843.41;5022293;28;20029;-73
2023/04/06 12:20:15;;;;;;;16.35;11.50;;;;;;;13.61;31.88;99850.72;5027917;28;20038;-76
2023/04/06 12:22:40;;;;;;;15.70;11.50;;;;;;;13.43;31.90;99846.25;5027023;28;20033;-75
2023/04/06 12:25:09;;;;;;;17.75;11.48;;;;;;;13.50;31.82;99836.69;5025083;28;20041;-75
2023/04/06 12:27:34;;;;;;;15.45;11.68;;;;;;;13.62;31.82;99839.94;5028822;28;20470;-76
2023/04/06 12:30:00;;;;;;;14.60;11.48;;;;;;;13.75;31.96;99832.41;5028111;28;20036;-73
2023/04/06 12:32:25;;;;;;;14.38;10.75;;;;;;;13.89;32.29;99825.69;5026900;28;20033;-74
2023/04/06 12:34:52;;;;;;;15.95;10.60;;;;;;;14.04;32.62;99829.41;5028067;28;20603;-74
2023/04/06 12:37:18;;;;;;;;;;;;;;;14.15;31.55;99823.81;5028774;28;20284;-74
2023/04/06 12:39:45;;;;;;;;;;;;;;;14.24;31.82;99828.19;5025640;28;20442;-72